createdAt,value
2022-08-27T00:00:19.569Z,98911.53
2022-08-27T00:03:22.422Z,98896.13
2022-08-27T00:06:26.275Z,98915.97
2022-08-27T00:09:30.234Z,98899.91
2022-08-27T00:12:33.088Z,98914.84
2022-08-27T00:15:36.913Z,98910.97
2022-08-27T00:18:41.268Z,98915.00
2022-08-27T00:21:44.474Z,98928.03
2022-08-27T00:24:48.983Z,98916.34
2022-08-27T00:27:52.501Z,98921.09
2022-08-27T00:30:58.535Z,98912.00
2022-08-27T00:34:01.878Z,98919.81
2022-08-27T00:37:06.642Z,98917.91
2022-08-27T00:40:17.227Z,98920.34
2022-08-27T00:43:45.283Z,98907.03
2022-08-27T00:46:52.810Z,98919.88
2022-08-27T00:50:04.252Z,98929.47
2022-08-27T00:53:18.098Z,98921.69
2022-08-27T00:56:24.986Z,98925.28
2022-08-27T00:59:31.031Z,98927.09
2022-08-27T01:02:33.689Z,98923.84
2022-08-27T01:05:38.558Z,98937.97
2022-08-27T01:08:46.255Z,98938.16
2022-08-27T01:11:49.474Z,98931.50
2022-08-27T01:14:52.642Z,98928.25
2022-08-27T01:17:57.460Z,98925.66
2022-08-27T01:21:10.684Z,98925.34
2022-08-27T01:24:24.623Z,98926.47
2022-08-27T01:27:31.538Z,98920.63
2022-08-27T01:30:35.112Z,98918.66
2022-08-27T01:33:38.396Z,98920.63
2022-08-27T01:36:41.392Z,98920.63
2022-08-27T01:39:44.575Z,98907.94
2022-08-27T01:42:52.297Z,98916.38
2022-08-27T01:45:54.960Z,98926.00
2022-08-27T01:48:57.946Z,98917.88
2022-08-27T01:52:00.553Z,98919.47
2022-08-27T01:55:07.217Z,98921.78
2022-08-27T01:58:13.239Z,98920.47
2022-08-27T02:01:18.441Z,98928.09
2022-08-27T02:04:21.881Z,98915.41
2022-08-27T02:07:25.819Z,98922.56
2022-08-27T02:10:32.499Z,98926.28
2022-08-27T02:13:35.670Z,98909.06
2022-08-27T02:16:41.275Z,98920.41
2022-08-27T02:19:54.818Z,98922.41
2022-08-27T02:22:58.487Z,98906.59
2022-08-27T02:26:01.166Z,98926.47
2022-08-27T02:29:05.320Z,98923.06
2022-08-27T02:32:07.961Z,98905.97
2022-08-27T02:35:25.503Z,98915.84
2022-08-27T02:38:28.099Z,98920.41
2022-08-27T02:41:31.477Z,98923.28
2022-08-27T02:44:35.564Z,98910.75
2022-08-27T02:47:38.631Z,98919.25
2022-08-27T02:50:42.162Z,98925.06
2022-08-27T02:53:45.064Z,98926.84
2022-08-27T02:56:48.403Z,98912.22
2022-08-27T02:59:52.280Z,98928.28
2022-08-27T03:02:55.585Z,98916.75
2022-08-27T03:05:59.138Z,98929.13
2022-08-27T03:09:01.814Z,98933.34
2022-08-27T03:12:05.574Z,98928.44
2022-08-27T03:15:11.479Z,98936.88
2022-08-27T03:18:18.271Z,98937.34
2022-08-27T03:21:25.030Z,98918.97
2022-08-27T03:24:27.961Z,98930.16
2022-08-27T03:27:32.469Z,98938.09
2022-08-27T03:30:35.357Z,98916.56
2022-08-27T03:33:40.642Z,98939.63
2022-08-27T03:36:43.775Z,98939.75
2022-08-27T03:39:49.412Z,98941.19
2022-08-27T03:42:52.339Z,98933.22
2022-08-27T03:46:01.296Z,98940.00
2022-08-27T03:49:08.585Z,98928.13
2022-08-27T03:52:16.751Z,98931.69
2022-08-27T03:55:19.790Z,98933.63
2022-08-27T03:58:22.475Z,98926.50
2022-08-27T04:01:25.389Z,98928.88
2022-08-27T04:04:28.530Z,98923.47
2022-08-27T04:07:32.486Z,98942.53
2022-08-27T04:10:38.941Z,98952.94
2022-08-27T04:13:41.587Z,98950.78
2022-08-27T04:16:44.448Z,98952.13
2022-08-27T04:19:47.070Z,98955.16
2022-08-27T04:22:49.967Z,98954.28
2022-08-27T04:25:52.579Z,98951.88
2022-08-27T04:28:58.029Z,98949.13
2022-08-27T04:32:01.214Z,98944.09
2022-08-27T04:35:04.571Z,98953.88
2022-08-27T04:38:07.470Z,98948.19
2022-08-27T04:41:20.022Z,98938.12
2022-08-27T04:44:23.822Z,98940.44
2022-08-27T04:47:26.697Z,98940.94
2022-08-27T04:50:29.389Z,98949.91
2022-08-27T04:53:32.924Z,98946.34
2022-08-27T04:56:37.890Z,98946.69
2022-08-27T04:59:40.731Z,98940.44
2022-08-27T05:02:43.362Z,98962.38
2022-08-27T05:05:47.497Z,98963.28
2022-08-27T05:08:51.790Z,98959.81
2022-08-27T05:11:55.617Z,98959.09
2022-08-27T05:14:58.294Z,98960.66
2022-08-27T05:18:01.316Z,98959.13
2022-08-27T05:21:05.967Z,98966.00
2022-08-27T05:24:09.627Z,98961.44
2022-08-27T05:27:13.086Z,98951.63
2022-08-27T05:30:16.262Z,98963.63
2022-08-27T05:33:21.892Z,98967.81
2022-08-27T05:36:28.151Z,98968.81
2022-08-27T05:39:30.864Z,98960.28
2022-08-27T05:42:34.408Z,98971.34
2022-08-27T05:45:48.565Z,98965.69
2022-08-27T05:48:52.319Z,98964.69
2022-08-27T05:51:55.441Z,98972.13
2022-08-27T05:54:58.422Z,98973.81
2022-08-27T05:58:01.050Z,98956.34
2022-08-27T06:01:10.104Z,98959.78
2022-08-27T06:04:17.612Z,98963.31
2022-08-27T06:07:21.044Z,98965.25
2022-08-27T06:10:24.021Z,98948.50
2022-08-27T06:13:26.572Z,98958.94
2022-08-27T06:16:29.524Z,98958.94
2022-08-27T06:19:32.150Z,98962.91
2022-08-27T06:22:38.313Z,98967.75
2022-08-27T06:25:42.084Z,98963.28
2022-08-27T06:28:45.820Z,98970.06
2022-08-27T06:31:50.452Z,98969.34
2022-08-27T06:34:53.635Z,98961.94
2022-08-27T06:37:56.233Z,98964.56
2022-08-27T06:40:59.223Z,98951.84
2022-08-27T06:44:02.587Z,98965.91
2022-08-27T06:47:05.530Z,98961.94
2022-08-27T06:50:08.490Z,98962.91
2022-08-27T06:53:12.155Z,98970.31
2022-08-27T06:56:16.908Z,98970.94
2022-08-27T06:59:20.737Z,98961.88
2022-08-27T07:02:23.421Z,98963.78
2022-08-27T07:05:26.763Z,98966.72
2022-08-27T07:08:29.673Z,98969.53
2022-08-27T07:11:33.275Z,98977.84
2022-08-27T07:14:38.287Z,98972.09
2022-08-27T07:17:41.874Z,98972.87
2022-08-27T07:20:44.532Z,98977.38
2022-08-27T07:23:49.085Z,98979.03
2022-08-27T07:26:51.764Z,98984.78
2022-08-27T07:29:54.665Z,98982.91
2022-08-27T07:32:57.286Z,98985.00
2022-08-27T07:36:00.211Z,98987.00
2022-08-27T07:39:02.838Z,98981.13
2022-08-27T07:42:24.349Z,98984.91
2022-08-27T07:45:28.162Z,98986.66
2022-08-27T07:48:33.668Z,98983.91
2022-08-27T07:51:39.540Z,98996.66
2022-08-27T07:54:42.994Z,98994.25
2022-08-27T07:57:48.026Z,98996.06
2022-08-27T08:00:50.983Z,98989.28
2022-08-27T08:03:53.863Z,98984.91
2022-08-27T08:06:56.790Z,98992.06
2022-08-27T08:10:00.107Z,98992.16
2022-08-27T08:13:03.417Z,98991.44
2022-08-27T08:16:06.950Z,98993.59
2022-08-27T08:19:09.616Z,98978.97
2022-08-27T08:22:12.711Z,98996.63
2022-08-27T08:25:16.668Z,98994.34
2022-08-27T08:28:19.640Z,98994.44
2022-08-27T08:31:24.221Z,98992.50
2022-08-27T08:34:28.917Z,98998.56
2022-08-27T08:37:31.562Z,98992.31
2022-08-27T08:40:44.130Z,98998.72
2022-08-27T08:43:51.552Z,98996.31
2022-08-27T08:46:59.938Z,98999.59
2022-08-27T08:50:19.933Z,98998.00
2022-08-27T08:53:41.061Z,99006.59
2022-08-27T08:57:06.226Z,98994.78
2022-08-27T09:00:12.769Z,98987.97
2022-08-27T09:03:16.571Z,98994.91
2022-08-27T09:06:40.400Z,99001.06
2022-08-27T09:09:58.674Z,98979.37
2022-08-27T09:13:05.305Z,99001.75
2022-08-27T09:16:08.095Z,99002.87
2022-08-27T09:19:12.988Z,98999.97
2022-08-27T09:22:38.764Z,98993.13
2022-08-27T09:25:43.495Z,98986.75
2022-08-27T09:29:04.690Z,98973.34
2022-08-27T09:32:09.450Z,98973.50
2022-08-27T09:35:13.600Z,98979.75
2022-08-27T09:38:30.198Z,98976.72
2022-08-27T09:41:40.237Z,98979.31
2022-08-27T09:44:52.993Z,98981.25
2022-08-27T09:48:16.246Z,98980.69
2022-08-27T09:51:27.269Z,98993.22
2022-08-27T09:54:41.023Z,98974.03
2022-08-27T09:57:43.945Z,98971.44
2022-08-27T10:00:47.836Z,98986.75
2022-08-27T10:03:51.094Z,98985.38
2022-08-27T10:06:53.811Z,98982.72
2022-08-27T10:10:19.664Z,98983.72
2022-08-27T10:13:25.953Z,98985.22
2022-08-27T10:16:52.942Z,98982.91
2022-08-27T10:20:29.585Z,98978.22
2022-08-27T10:23:58.050Z,98973.97
2022-08-27T10:27:09.706Z,98975.56
2022-08-27T10:30:17.379Z,98966.00
2022-08-27T10:33:36.426Z,98982.91
2022-08-27T10:37:21.550Z,98983.66
2022-08-27T10:40:59.190Z,98971.41
2022-08-27T10:44:07.789Z,98960.47
2022-08-27T10:47:35.303Z,98969.84
2022-08-27T10:51:11.860Z,98967.97
2022-08-27T10:54:39.564Z,98964.37
2022-08-27T10:58:08.330Z,98963.78
2022-08-27T11:01:31.381Z,98959.59
2022-08-27T11:04:48.445Z,98965.25
2022-08-27T11:07:59.706Z,98964.91
2022-08-27T11:11:49.814Z,98956.44
2022-08-27T11:14:43.203Z,98957.84
2022-08-27T11:17:55.215Z,98953.94
2022-08-27T11:21:01.758Z,98948.25
2022-08-27T11:24:07.402Z,98946.34
2022-08-27T11:27:10.843Z,98941.66
2022-08-27T11:30:46.046Z,98944.38
2022-08-27T11:33:48.795Z,98941.41
2022-08-27T11:37:10.601Z,98944.13
2022-08-27T11:40:38.451Z,98935.91
2022-08-27T11:43:44.913Z,98932.81
2022-08-27T11:46:52.068Z,98927.56
2022-08-27T11:49:59.157Z,98923.00
2022-08-27T11:53:05.927Z,98933.22
2022-08-27T11:56:21.093Z,98930.41
2022-08-27T11:59:26.639Z,98929.56
2022-08-27T12:02:30.134Z,98913.44
2022-08-27T12:05:56.250Z,98900.91
2022-08-27T12:09:14.409Z,98910.59
2022-08-27T12:12:21.987Z,98914.94
2022-08-27T12:15:50.999Z,98905.97
2022-08-27T12:18:57.058Z,98913.72
2022-08-27T12:22:11.744Z,98903.50
2022-08-27T12:25:22.260Z,98905.72
2022-08-27T12:28:26.812Z,98908.41
2022-08-27T12:31:30.116Z,98898.78
2022-08-27T12:34:43.902Z,98899.12
2022-08-27T12:37:50.933Z,98893.16
2022-08-27T12:41:00.408Z,98887.81
2022-08-27T12:44:05.014Z,98895.13
2022-08-27T12:47:13.362Z,98895.59
2022-08-27T12:50:26.286Z,98891.56
2022-08-27T12:53:45.562Z,98883.78
2022-08-27T12:57:03.992Z,98886.59
2022-08-27T13:00:14.134Z,98895.50
2022-08-27T13:03:38.202Z,98888.69
2022-08-27T13:06:45.434Z,98881.66
2022-08-27T13:09:48.328Z,98859.66
2022-08-27T13:13:11.499Z,98872.37
2022-08-27T13:16:14.725Z,98876.94
2022-08-27T13:19:34.445Z,98874.69
2022-08-27T13:22:39.759Z,98870.53
2022-08-27T13:26:03.371Z,98871.88
2022-08-27T13:29:07.523Z,98865.56
2022-08-27T13:32:14.169Z,98871.72
2022-08-27T13:35:18.918Z,98862.28
2022-08-27T13:38:22.592Z,98868.31
2022-08-27T13:41:36.520Z,98868.94
2022-08-27T13:44:41.443Z,98861.69
2022-08-27T13:47:52.229Z,98848.72
2022-08-27T13:50:57.108Z,98856.59
2022-08-27T13:54:15.647Z,98843.06
2022-08-27T13:57:31.386Z,98860.53
2022-08-27T14:00:34.814Z,98852.06
2022-08-27T14:03:47.715Z,98840.94
2022-08-27T14:06:50.818Z,98846.84
2022-08-27T14:09:57.307Z,98853.06
2022-08-27T14:13:06.516Z,98848.88
2022-08-27T14:16:14.642Z,98843.59
2022-08-27T14:19:33.187Z,98826.53
2022-08-27T14:22:39.965Z,98849.16
2022-08-27T14:25:42.599Z,98838.47
2022-08-27T14:28:46.426Z,98850.31
2022-08-27T14:31:49.178Z,98840.47
2022-08-27T14:34:53.352Z,98850.53
2022-08-27T14:37:56.278Z,98849.66
2022-08-27T14:40:59.499Z,98850.97
2022-08-27T14:44:03.304Z,98854.41
2022-08-27T14:47:09.553Z,98839.50
2022-08-27T14:50:13.583Z,98852.41
2022-08-27T14:53:17.501Z,98851.19
2022-08-27T14:56:21.293Z,98845.50
2022-08-27T14:59:24.282Z,98856.00
2022-08-27T15:02:27.111Z,98845.81
2022-08-27T15:05:30.116Z,98866.03
2022-08-27T15:08:34.973Z,98845.62
2022-08-27T15:11:41.634Z,98872.06
2022-08-27T15:14:44.476Z,98855.97
2022-08-27T15:17:47.436Z,98849.09
2022-08-27T15:20:50.438Z,98857.56
2022-08-27T15:23:59.522Z,98867.25
2022-08-27T15:27:02.246Z,98851.13
2022-08-27T15:30:07.477Z,98853.56
2022-08-27T15:33:10.199Z,98855.63
2022-08-27T15:36:13.854Z,98862.06
2022-08-27T15:39:16.437Z,98862.81
2022-08-27T15:42:19.701Z,98867.66
2022-08-27T15:45:25.841Z,98848.03
2022-08-27T15:48:32.254Z,98863.69
2022-08-27T15:51:35.878Z,98856.56
2022-08-27T15:54:39.285Z,98862.22
2022-08-27T15:57:41.932Z,98851.44
2022-08-27T16:00:46.515Z,98863.09
2022-08-27T16:03:50.118Z,98863.50
2022-08-27T16:06:53.239Z,98849.81
2022-08-27T16:09:56.392Z,98847.84
2022-08-27T16:12:59.083Z,98842.66
2022-08-27T16:16:02.073Z,98849.91
2022-08-27T16:19:06.250Z,98843.13
2022-08-27T16:22:09.137Z,98833.09
2022-08-27T16:25:16.483Z,98849.97
2022-08-27T16:28:21.820Z,98855.59
2022-08-27T16:31:24.598Z,98836.31
2022-08-27T16:34:29.843Z,98842.37
2022-08-27T16:37:32.584Z,98858.03
2022-08-27T16:40:39.879Z,98858.44
2022-08-27T16:43:45.101Z,98864.09
2022-08-27T16:46:47.998Z,98858.50
2022-08-27T16:50:09.421Z,98883.41
2022-08-27T16:53:26.283Z,98899.88
2022-08-27T16:56:28.972Z,98914.31
2022-08-27T16:59:31.937Z,98896.59
2022-08-27T17:02:35.910Z,98925.06
2022-08-27T17:05:39.046Z,98925.84
2022-08-27T17:08:47.666Z,98903.25
2022-08-27T17:11:57.086Z,98928.50
2022-08-27T17:15:00.844Z,98925.97
2022-08-27T17:18:04.018Z,98926.72
2022-08-27T17:21:06.659Z,98927.34
2022-08-27T17:24:12.587Z,98931.66
2022-08-27T17:27:17.879Z,98931.09
2022-08-27T17:30:21.300Z,98938.00
2022-08-27T17:33:45.834Z,98938.16
2022-08-27T17:36:49.683Z,98948.72
2022-08-27T17:39:52.818Z,98948.28
2022-08-27T17:42:55.952Z,98953.91
2022-08-27T17:45:59.283Z,98953.78
2022-08-27T17:49:02.885Z,98954.75
2022-08-27T17:52:11.043Z,98950.75
2022-08-27T17:55:13.970Z,98948.19
2022-08-27T17:58:16.685Z,98948.38
2022-08-27T18:01:24.140Z,98938.53
2022-08-27T18:04:31.323Z,98924.91
2022-08-27T18:07:39.150Z,98940.38
2022-08-27T18:10:43.749Z,98940.53
2022-08-27T18:13:52.289Z,98936.56
2022-08-27T18:16:55.663Z,98933.22
2022-08-27T18:19:58.350Z,98938.47
2022-08-27T18:23:03.078Z,98940.63
2022-08-27T18:26:10.864Z,98943.22
2022-08-27T18:29:15.295Z,98944.63
2022-08-27T18:32:17.986Z,98955.25
2022-08-27T18:35:26.899Z,98949.09
2022-08-27T18:38:29.680Z,98946.16
2022-08-27T18:41:32.836Z,98951.38
2022-08-27T18:44:38.678Z,98958.25
2022-08-27T18:47:42.883Z,98958.47
2022-08-27T18:50:48.959Z,98972.94
2022-08-27T18:53:52.137Z,98977.94
2022-08-27T18:56:55.251Z,98975.56
2022-08-27T18:59:58.263Z,98982.63
2022-08-27T19:03:01.854Z,98980.13
2022-08-27T19:06:09.009Z,98957.75
2022-08-27T19:09:14.055Z,98979.25
2022-08-27T19:12:17.794Z,98982.75
2022-08-27T19:15:20.983Z,98968.81
2022-08-27T19:18:26.472Z,98967.81
2022-08-27T19:21:29.195Z,98973.47
2022-08-27T19:24:32.155Z,98964.03
2022-08-27T19:27:41.195Z,98962.88
2022-08-27T19:30:45.210Z,98966.09
2022-08-27T19:33:48.073Z,98984.28
2022-08-27T19:36:51.562Z,98997.56
2022-08-27T19:39:54.521Z,98998.47
2022-08-27T19:42:57.524Z,98996.69
2022-08-27T19:46:04.547Z,99003.59
2022-08-27T19:49:07.720Z,98988.75
2022-08-27T19:52:10.535Z,98977.94
2022-08-27T19:55:14.493Z,98990.91
2022-08-27T19:58:19.345Z,98996.63
2022-08-27T20:01:22.351Z,98993.25
2022-08-27T20:04:30.333Z,98974.72
2022-08-27T20:07:35.276Z,98978.00
2022-08-27T20:10:39.201Z,98987.66
2022-08-27T20:13:50.390Z,98983.47
2022-08-27T20:16:53.925Z,98983.03
2022-08-27T20:19:58.945Z,98997.06
2022-08-27T20:23:05.710Z,98991.03
2022-08-27T20:26:08.426Z,99006.81
2022-08-27T20:29:11.806Z,99005.44
2022-08-27T20:32:19.518Z,99008.09
2022-08-27T20:35:22.982Z,99016.91
2022-08-27T20:38:25.631Z,99017.56
2022-08-27T20:41:29.329Z,99025.84
2022-08-27T20:44:32.345Z,99021.38
2022-08-27T20:47:35.773Z,99018.09
2022-08-27T20:50:38.796Z,99018.25
2022-08-27T20:53:41.830Z,99029.09
2022-08-27T20:56:52.228Z,99035.16
2022-08-27T21:00:14.439Z,99043.06
2022-08-27T21:03:17.170Z,99032.13
2022-08-27T21:06:25.003Z,99047.25
2022-08-27T21:09:29.055Z,99047.91
2022-08-27T21:12:32.328Z,99044.25
2022-08-27T21:15:35.035Z,99045.16
2022-08-27T21:18:39.362Z,99044.09
2022-08-27T21:21:42.001Z,99058.88
2022-08-27T21:24:47.210Z,99043.06
2022-08-27T21:27:49.847Z,99038.19
2022-08-27T21:30:53.240Z,99050.34
2022-08-27T21:33:55.874Z,99112.91
2022-08-27T21:36:59.034Z,99173.44
2022-08-27T21:40:02.113Z,99200.63
2022-08-27T21:43:05.651Z,99151.44
2022-08-27T21:46:08.298Z,99172.03
2022-08-27T21:49:11.250Z,99222.78
2022-08-27T21:52:14.409Z,99223.16
2022-08-27T21:55:18.250Z,99171.34
2022-08-27T21:58:25.795Z,99179.03
2022-08-27T22:01:29.549Z,99180.91
2022-08-27T22:04:32.517Z,99187.06
2022-08-27T22:07:35.362Z,99158.31
2022-08-27T22:10:40.373Z,99139.56
2022-08-27T22:13:43.334Z,99169.06
2022-08-27T22:16:46.223Z,99147.66
2022-08-27T22:19:48.878Z,99144.09
2022-08-27T22:22:52.428Z,99138.75
2022-08-27T22:25:55.134Z,99120.66
2022-08-27T22:28:58.125Z,99124.53
2022-08-27T22:32:00.820Z,99105.50
2022-08-27T22:35:04.048Z,99098.34
2022-08-27T22:38:07.166Z,99102.81
2022-08-27T22:41:13.677Z,99096.31
2022-08-27T22:44:16.903Z,99082.81
2022-08-27T22:47:19.909Z,99095.34
2022-08-27T22:50:23.086Z,99083.94
2022-08-27T22:53:26.238Z,99066.62
2022-08-27T22:56:28.893Z,99064.53
2022-08-27T22:59:31.923Z,99052.03
2022-08-27T23:02:34.607Z,99043.88
2022-08-27T23:05:41.589Z,99061.44
2022-08-27T23:08:44.806Z,99065.88
2022-08-27T23:11:48.062Z,99067.84
2022-08-27T23:14:50.700Z,99070.41
2022-08-27T23:17:53.954Z,99068.00
2022-08-27T23:20:56.668Z,99069.13
2022-08-27T23:24:00.816Z,99079.09
2022-08-27T23:27:22.086Z,99105.84
2022-08-27T23:30:26.854Z,99092.81
2022-08-27T23:33:29.562Z,99116.72
2022-08-27T23:36:32.541Z,99148.66
2022-08-27T23:39:35.238Z,99128.91
2022-08-27T23:42:40.832Z,99103.88
2022-08-27T23:45:43.814Z,99104.84
2022-08-27T23:48:46.759Z,99098.62
2022-08-27T23:51:49.475Z,99079.69
2022-08-27T23:54:52.610Z,99068.75
2022-08-27T23:57:57.751Z,99073.78
